DAL2602 KDTW-KLGA
Flight info
| Callsign | DAL2602 |
|---|---|
| Flight time | N/A |
| Altitude | 35000 |
| Route | PAVYL3 ESSBE CXR ETG MIP4 |
| Aircraft | A321/M-SDE3FGHIRWY/LB1 |
Departure
| Time | N/A |
|---|---|
| Airport | Detroit Metropolitan Wayne County Airport (KDTW) |
Arrival
| Time | 2026-05-03 20:23 |
|---|---|
| Airport | LaGuardia Airport (KLGA) |
| Time | Latitude | Longitude | Altitude | Speed | Heading |
|---|---|---|---|---|---|
| 2026-05-03 20:15 | 40.48952 | -74.31230 | 5579 ft | 284 kts | 66° |
| 2026-05-03 20:15 | 40.49605 | -74.28782 | 5422 ft | 284 kts | 66° |
| 2026-05-03 20:15 | 40.50258 | -74.26335 | 5265 ft | 283 kts | 66° |
| 2026-05-03 20:15 | 40.50906 | -74.23906 | 5113 ft | 282 kts | 66° |
| 2026-05-03 20:16 | 40.51555 | -74.21478 | 4963 ft | 281 kts | 66° |
| 2026-05-03 20:16 | 40.52204 | -74.19057 | 4794 ft | 280 kts | 66° |
| 2026-05-03 20:16 | 40.52851 | -74.16638 | 4642 ft | 281 kts | 66° |
| 2026-05-03 20:16 | 40.53493 | -74.14229 | 4472 ft | 278 kts | 66° |
| 2026-05-03 20:17 | 40.54130 | -74.11839 | 4335 ft | 277 kts | 66° |
| 2026-05-03 20:17 | 40.54755 | -74.09477 | 4186 ft | 268 kts | 66° |
| 2026-05-03 20:17 | 40.55513 | -74.07320 | 4047 ft | 252 kts | 51° |
| 2026-05-03 20:17 | 40.56581 | -74.05596 | 3914 ft | 236 kts | 37° |
| 2026-05-03 20:18 | 40.57842 | -74.04324 | 3778 ft | 222 kts | 25° |
| 2026-05-03 20:18 | 40.59122 | -74.03253 | 3646 ft | 214 kts | 25° |
| 2026-05-03 20:18 | 40.60354 | -74.02205 | 3530 ft | 208 kts | 25° |
| 2026-05-03 20:18 | 40.61572 | -74.01168 | 3443 ft | 208 kts | 26° |
| 2026-05-03 20:19 | 40.62788 | -74.00133 | 3332 ft | 208 kts | 26° |
| 2026-05-03 20:19 | 40.64003 | -73.99102 | 3214 ft | 207 kts | 25° |
| 2026-05-03 20:19 | 40.65212 | -73.98079 | 3102 ft | 206 kts | 25° |
| 2026-05-03 20:19 | 40.66417 | -73.97056 | 2985 ft | 206 kts | 25° |
| 2026-05-03 20:20 | 40.67615 | -73.96027 | 2809 ft | 205 kts | 25° |
| 2026-05-03 20:20 | 40.68808 | -73.94999 | 2631 ft | 204 kts | 25° |
| 2026-05-03 20:20 | 40.69944 | -73.93855 | 2466 ft | 210 kts | 40° |
| 2026-05-03 20:20 | 40.70905 | -73.92467 | 2379 ft | 203 kts | 40° |
| 2026-05-03 20:21 | 40.71777 | -73.91014 | 2185 ft | 201 kts | 55° |
| 2026-05-03 20:21 | 40.72210 | -73.89244 | 1927 ft | 207 kts | 71° |
| 2026-05-03 20:21 | 40.72526 | -73.87399 | 1634 ft | 203 kts | 71° |
| 2026-05-03 20:21 | 40.72874 | -73.85699 | 1327 ft | 179 kts | 58° |
| 2026-05-03 20:22 | 40.73530 | -73.84473 | 1061 ft | 154 kts | 34° |
| 2026-05-03 20:22 | 40.74367 | -73.83742 | 830 ft | 137 kts | 12° |
| 2026-05-03 20:22 | 40.75263 | -73.83500 | 629 ft | 130 kts | 355° |
| 2026-05-03 20:22 | 40.76123 | -73.83744 | 452 ft | 125 kts | 324° |
| 2026-05-03 20:23 | 40.76688 | -73.84598 | 305 ft | 129 kts | 300° |
| 2026-05-03 20:23 | 40.77160 | -73.85602 | 64 ft | 128 kts | 303° |
| 2026-05-03 20:23 | 40.77595 | -73.86509 | 13 ft | 88 kts | 302° |
| 2026-05-03 20:23 | 40.77758 | -73.86852 | 14 ft | 3 kts | 301° |
| 2026-05-03 20:24 | 40.77813 | -73.87013 | 15 ft | 28 kts | 281° |
| 2026-05-03 20:24 | 40.77792 | -73.87136 | 13 ft | 9 kts | 199° |
| 2026-05-03 20:24 | 40.77742 | -73.87158 | 14 ft | 7 kts | 194° |
| 2026-05-03 20:24 | 40.77694 | -73.87101 | 15 ft | 12 kts | 125° |
| 2026-05-03 20:25 | 40.77648 | -73.87007 | 14 ft | 13 kts | 122° |
| 2026-05-03 20:25 | 40.77601 | -73.86910 | 14 ft | 12 kts | 120° |
| 2026-05-03 20:25 | 40.77557 | -73.86816 | 13 ft | 12 kts | 126° |
| 2026-05-03 20:25 | 40.77502 | -73.86726 | 14 ft | 15 kts | 126° |
| 2026-05-03 20:26 | 40.77441 | -73.86595 | 13 ft | 17 kts | 121° |
| 2026-05-03 20:26 | 40.77381 | -73.86466 | 12 ft | 15 kts | 121° |
| 2026-05-03 20:26 | 40.77368 | -73.86440 | 12 ft | 0 kts | 123° |
| 2026-05-03 20:26 | 40.77367 | -73.86439 | 12 ft | 1 kts | 123° |
| 2026-05-03 20:27 | 40.77363 | -73.86430 | 12 ft | 2 kts | 122° |
| 2026-05-03 20:27 | 40.77339 | -73.86380 | 13 ft | 10 kts | 122° |
| 2026-05-03 20:27 | 40.77303 | -73.86307 | 13 ft | 8 kts | 131° |
| 2026-05-03 20:27 | 40.77273 | -73.86293 | 15 ft | 0 kts | 200° |
| 2026-05-03 20:28 | 40.77253 | -73.86315 | 18 ft | 8 kts | 229° |
| 2026-05-03 20:28 | 40.77213 | -73.86364 | 20 ft | 7 kts | 206° |
| 2026-05-03 20:28 | 40.77179 | -73.86347 | 20 ft | 3 kts | 141° |
| 2026-05-03 20:28 | 40.77171 | -73.86336 | 20 ft | 0 kts | 136° |
| 2026-05-03 20:29 | 40.77170 | -73.86335 | 20 ft | 0 kts | 136° |